sensor_id;sensor_type;location;lat;lon;timestamp;pressure;altitude;pressure_sealevel;temperature;humidity
45357;BME280;31092;51.924;21.448;2023-02-22T00:01:18;100060.84;;;3.46;100.00
45357;BME280;31092;51.924;21.448;2023-02-22T00:03:50;99971.78;;;2.96;100.00
45357;BME280;31092;51.924;21.448;2023-02-22T00:06:19;100020.09;;;3.23;100.00
45357;BME280;31092;51.924;21.448;2023-02-22T00:08:46;100063.75;;;3.43;100.00
45357;BME280;31092;51.924;21.448;2023-02-22T00:11:13;100050.81;;;3.39;100.00
45357;BME280;31092;51.924;21.448;2023-02-22T00:13:39;100032.22;;;3.16;100.00
45357;BME280;31092;51.924;21.448;2023-02-22T00:16:08;100057.22;;;3.36;100.00
45357;BME280;31092;51.924;21.448;2023-02-22T00:18:37;100033.06;;;3.17;100.00
45357;BME280;31092;51.924;21.448;2023-02-22T00:21:03;99979.75;;;2.84;100.00
45357;BME280;31092;51.924;21.448;2023-02-22T00:23:30;99982.31;;;2.86;100.00
45357;BME280;31092;51.924;21.448;2023-02-22T00:25:57;100063.78;;;3.32;100.00
45357;BME280;31092;51.924;21.448;2023-02-22T00:28:24;100050.25;;;3.12;100.00
45357;BME280;31092;51.924;21.448;2023-02-22T00:30:50;100015.53;;;2.92;100.00
45357;BME280;31092;51.924;21.448;2023-02-22T00:33:16;99998.66;;;2.81;100.00
45357;BME280;31092;51.924;21.448;2023-02-22T00:35:43;100080.13;;;3.27;100.00
45357;BME280;31092;51.924;21.448;2023-02-22T00:38:10;100056.78;;;3.08;100.00
45357;BME280;31092;51.924;21.448;2023-02-22T00:40:36;99971.56;;;2.54;100.00
45357;BME280;31092;51.924;21.448;2023-02-22T00:43:03;100052.06;;;2.90;100.00
45357;BME280;31092;51.924;21.448;2023-02-22T00:45:31;100002.28;;;2.58;100.00
45357;BME280;31092;51.924;21.448;2023-02-22T00:47:57;100097.78;;;3.06;100.00
45357;BME280;31092;51.924;21.448;2023-02-22T00:50:25;100030.31;;;2.62;100.00
45357;BME280;31092;51.924;21.448;2023-02-22T00:52:52;99983.28;;;2.29;100.00
45357;BME280;31092;51.924;21.448;2023-02-22T00:55:24;100078.78;;;2.77;100.00
45357;BME280;31092;51.924;21.448;2023-02-22T00:57:50;100088.22;;;2.70;100.00
45357;BME280;31092;51.924;21.448;2023-02-22T01:00:19;100112.50;;;2.76;100.00
45357;BME280;31092;51.924;21.448;2023-02-22T01:02:46;100097.25;;;2.56;100.00
45357;BME280;31092;51.924;21.448;2023-02-22T01:05:16;100112.38;;;2.67;100.00
45357;BME280;31092;51.924;21.448;2023-02-22T01:07:41;100105.59;;;2.51;100.00
45357;BME280;31092;51.924;21.448;2023-02-22T01:10:09;100113.69;;;2.50;100.00
45357;BME280;31092;51.924;21.448;2023-02-22T01:12:35;100026.81;;;1.92;100.00
45357;BME280;31092;51.924;21.448;2023-02-22T01:15:03;100022.19;;;1.83;100.00
45357;BME280;31092;51.924;21.448;2023-02-22T01:17:29;100029.31;;;1.83;100.00
45357;BME280;31092;51.924;21.448;2023-02-22T01:20:02;100102.97;;;2.27;100.00
45357;BME280;31092;51.924;21.448;2023-02-22T01:22:28;100017.81;;;1.71;100.00
45357;BME280;31092;51.924;21.448;2023-02-22T01:24:54;100108.88;;;2.20;100.00
45357;BME280;31092;51.924;21.448;2023-02-22T01:27:20;100132.34;;;2.26;100.00
45357;BME280;31092;51.924;21.448;2023-02-22T01:29:48;100123.50;;;2.14;100.00
45357;BME280;31092;51.924;21.448;2023-02-22T01:32:14;100135.81;;;2.15;100.00
45357;BME280;31092;51.924;21.448;2023-02-22T01:34:40;100085.28;;;1.80;100.00
45357;BME280;31092;51.924;21.448;2023-02-22T01:37:06;100135.44;;;1.96;100.00
45357;BME280;31092;51.924;21.448;2023-02-22T01:39:32;100043.09;;;1.40;100.00
45357;BME280;31092;51.924;21.448;2023-02-22T01:41:58;100140.72;;;1.84;100.00
45357;BME280;31092;51.924;21.448;2023-02-22T01:44:28;100148.25;;;1.90;100.00
45357;BME280;31092;51.924;21.448;2023-02-22T01:46:55;100132.59;;;1.75;100.00
45357;BME280;31092;51.924;21.448;2023-02-22T01:49:23;100145.75;;;1.76;100.00
45357;BME280;31092;51.924;21.448;2023-02-22T01:51:50;100064.91;;;1.19;100.00
45357;BME280;31092;51.924;21.448;2023-02-22T01:54:30;100146.41;;;1.67;100.00
45357;BME280;31092;51.924;21.448;2023-02-22T01:57:10;100119.84;;;1.43;100.00
45357;BME280;31092;51.924;21.448;2023-02-22T01:59:40;100067.72;;;1.05;100.00
45357;BME280;31092;51.924;21.448;2023-02-22T02:02:06;100142.75;;;1.44;100.00
45357;BME280;31092;51.924;21.448;2023-02-22T02:04:32;100155.19;;;1.43;100.00
45357;BME280;31092;51.924;21.448;2023-02-22T02:07:04;100112.03;;;1.16;100.00
45357;BME280;31092;51.924;21.448;2023-02-22T02:09:33;100166.53;;;1.46;100.00
45357;BME280;31092;51.924;21.448;2023-02-22T02:12:01;100161.69;;;1.39;100.00
45357;BME280;31092;51.924;21.448;2023-02-22T02:14:30;100072.72;;;0.84;100.00
45357;BME280;31092;51.924;21.448;2023-02-22T02:16:59;100172.94;;;1.43;100.00
45357;BME280;31092;51.924;21.448;2023-02-22T02:20:06;100170.38;;;1.41;100.00
45357;BME280;31092;51.924;21.448;2023-02-22T02:31:01;100183.34;;;1.20;100.00
45357;BME280;31092;51.924;21.448;2023-02-22T02:33:37;100155.88;;;0.96;100.00
45357;BME280;31092;51.924;21.448;2023-02-22T02:36:15;100187.50;;;1.12;100.00
45357;BME280;31092;51.924;21.448;2023-02-22T02:39:39;100093.53;;;0.52;100.00
45357;BME280;31092;51.924;21.448;2023-02-22T02:41:43;100183.56;;;0.92;100.00
45357;BME280;31092;51.924;21.448;2023-02-22T02:44:15;100193.97;;;1.08;100.00
45357;BME280;31092;51.924;21.448;2023-02-22T02:49:39;100166.28;;;0.86;100.00
45357;BME280;31092;51.924;21.448;2023-02-22T02:52:09;100180.91;;;0.92;100.00
45357;BME280;31092;51.924;21.448;2023-02-22T02:54:38;100081.41;;;0.35;100.00
45357;BME280;31092;51.924;21.448;2023-02-22T02:57:04;100203.63;;;1.09;100.00
45357;BME280;31092;51.924;21.448;2023-02-22T02:59:32;100093.84;;;0.47;100.00
45357;BME280;31092;51.924;21.448;2023-02-22T03:13:12;100208.72;;;1.12;100.00
45357;BME280;31092;51.924;21.448;2023-02-22T03:15:56;100214.78;;;1.14;100.00
45357;BME280;31092;51.924;21.448;2023-02-22T03:21:06;100178.16;;;0.93;100.00
45357;BME280;31092;51.924;21.448;2023-02-22T03:26:38;100226.44;;;1.24;100.00
45357;BME280;31092;51.924;21.448;2023-02-22T03:29:05;100215.28;;;1.19;100.00
45357;BME280;31092;51.924;21.448;2023-02-22T03:31:38;100230.69;;;1.14;100.00
45357;BME280;31092;51.924;21.448;2023-02-22T03:34:12;100224.97;;;1.07;100.00
45357;BME280;31092;51.924;21.448;2023-02-22T03:36:54;100147.38;;;0.53;100.00
45357;BME280;31092;51.924;21.448;2023-02-22T03:39:20;100225.06;;;0.93;100.00
45357;BME280;31092;51.924;21.448;2023-02-22T03:41:52;100141.50;;;0.22;100.00
45357;BME280;31092;51.924;21.448;2023-02-22T03:44:23;100193.44;;;0.37;100.00
45357;BME280;31092;51.924;21.448;2023-02-22T03:46:53;100164.19;;;-0.01;100.00
45357;BME280;31092;51.924;21.448;2023-02-22T03:49:34;100248.09;;;0.26;100.00
45357;BME280;31092;51.924;21.448;2023-02-22T03:52:02;100134.00;;;-0.53;100.00
45357;BME280;31092;51.924;21.448;2023-02-22T03:54:28;100241.47;;;-0.09;100.00
45357;BME280;31092;51.924;21.448;2023-02-22T03:56:57;100250.19;;;-0.07;100.00
45357;BME280;31092;51.924;21.448;2023-02-22T03:59:25;100136.97;;;-0.86;100.00
45357;BME280;31092;51.924;21.448;2023-02-22T04:01:53;100225.53;;;-0.50;100.00
45357;BME280;31092;51.924;21.448;2023-02-22T04:04:19;100254.66;;;-0.50;100.00
45357;BME280;31092;51.924;21.448;2023-02-22T04:07:01;100249.66;;;-0.55;100.00
45357;BME280;31092;51.924;21.448;2023-02-22T04:09:27;100166.47;;;-0.92;100.00
45357;BME280;31092;51.924;21.448;2023-02-22T04:11:52;100223.97;;;-0.53;100.00
45357;BME280;31092;51.924;21.448;2023-02-22T04:14:18;100270.44;;;-0.20;100.00
45357;BME280;31092;51.924;21.448;2023-02-22T04:16:43;100260.97;;;-0.24;100.00
45357;BME280;31092;51.924;21.448;2023-02-22T04:19:09;100258.72;;;-0.30;100.00
45357;BME280;31092;51.924;21.448;2023-02-22T04:21:35;100175.41;;;-0.66;100.00
45357;BME280;31092;51.924;21.448;2023-02-22T04:24:00;100109.97;;;-0.91;100.00
45357;BME280;31092;51.924;21.448;2023-02-22T04:26:26;100141.88;;;-0.65;100.00
45357;BME280;31092;51.924;21.448;2023-02-22T04:28:51;100274.03;;;0.20;100.00
45357;BME280;31092;51.924;21.448;2023-02-22T04:31:17;100183.84;;;-0.32;100.00
45357;BME280;31092;51.924;21.448;2023-02-22T04:33:43;100182.91;;;-0.31;100.00
45357;BME280;31092;51.924;21.448;2023-02-22T04:36:09;100241.50;;;0.18;100.00
45357;BME280;31092;51.924;21.448;2023-02-22T04:38:35;100220.59;;;0.14;100.00
45357;BME280;31092;51.924;21.448;2023-02-22T04:41:00;100120.81;;;-0.40;100.00
45357;BME280;31092;51.924;21.448;2023-02-22T04:43:26;100268.22;;;0.55;100.00
45357;BME280;31092;51.924;21.448;2023-02-22T04:45:51;100265.47;;;0.57;100.00
45357;BME280;31092;51.924;21.448;2023-02-22T04:48:17;100162.38;;;-0.01;100.00
45357;BME280;31092;51.924;21.448;2023-02-22T04:50:42;100263.47;;;0.60;100.00
45357;BME280;31092;51.924;21.448;2023-02-22T04:53:08;100154.22;;;-0.10;100.00
45357;BME280;31092;51.924;21.448;2023-02-22T04:55:33;100265.69;;;0.54;100.00
45357;BME280;31092;51.924;21.448;2023-02-22T04:57:59;100202.16;;;0.12;100.00
45357;BME280;31092;51.924;21.448;2023-02-22T05:00:25;100292.34;;;0.65;100.00
45357;BME280;31092;51.924;21.448;2023-02-22T05:02:51;100187.63;;;0.05;100.00
45357;BME280;31092;51.924;21.448;2023-02-22T05:05:18;100266.88;;;0.62;100.00
45357;BME280;31092;51.924;21.448;2023-02-22T05:07:45;100188.41;;;0.20;100.00
45357;BME280;31092;51.924;21.448;2023-02-22T05:10:12;100288.84;;;0.77;100.00
45357;BME280;31092;51.924;21.448;2023-02-22T05:12:38;100295.44;;;0.84;100.00
45357;BME280;31092;51.924;21.448;2023-02-22T05:15:05;100251.94;;;0.61;100.00
45357;BME280;31092;51.924;21.448;2023-02-22T05:17:31;100207.66;;;0.36;100.00
45357;BME280;31092;51.924;21.448;2023-02-22T05:19:57;100216.06;;;0.43;100.00
45357;BME280;31092;51.924;21.448;2023-02-22T05:22:22;100221.25;;;0.44;100.00
45357;BME280;31092;51.924;21.448;2023-02-22T05:24:48;100215.81;;;0.33;100.00
45357;BME280;31092;51.924;21.448;2023-02-22T05:27:17;100322.09;;;0.95;100.00
45357;BME280;31092;51.924;21.448;2023-02-22T05:29:43;100223.50;;;0.23;100.00
45357;BME280;31092;51.924;21.448;2023-02-22T05:32:09;100227.66;;;0.28;100.00
45357;BME280;31092;51.924;21.448;2023-02-22T05:34:36;100304.44;;;0.69;100.00
45357;BME280;31092;51.924;21.448;2023-02-22T05:37:02;100192.47;;;-0.02;100.00
45357;BME280;31092;51.924;21.448;2023-02-22T05:39:29;100235.44;;;0.16;100.00
45357;BME280;31092;51.924;21.448;2023-02-22T05:41:55;100233.19;;;0.10;100.00
45357;BME280;31092;51.924;21.448;2023-02-22T05:44:20;100346.47;;;0.75;100.00
45357;BME280;31092;51.924;21.448;2023-02-22T05:46:46;100274.59;;;0.26;100.00
45357;BME280;31092;51.924;21.448;2023-02-22T05:49:11;100337.91;;;0.57;100.00
45357;BME280;31092;51.924;21.448;2023-02-22T05:51:37;100335.34;;;0.56;100.00
45357;BME280;31092;51.924;21.448;2023-02-22T05:54:02;100338.47;;;0.48;100.00
45357;BME280;31092;51.924;21.448;2023-02-22T05:56:29;100341.03;;;0.50;100.00
45357;BME280;31092;51.924;21.448;2023-02-22T05:58:55;100333.31;;;0.46;100.00
45357;BME280;31092;51.924;21.448;2023-02-22T06:01:21;100274.16;;;0.05;100.00
45357;BME280;31092;51.924;21.448;2023-02-22T06:03:48;100257.25;;;-0.07;100.00
45357;BME280;31092;51.924;21.448;2023-02-22T06:06:15;100366.09;;;0.58;100.00
45357;BME280;31092;51.924;21.448;2023-02-22T06:08:41;100245.34;;;-0.14;100.00
45357;BME280;31092;51.924;21.448;2023-02-22T06:11:07;100310.84;;;0.25;100.00
45357;BME280;31092;51.924;21.448;2023-02-22T06:13:35;100355.22;;;0.48;100.00
45357;BME280;31092;51.924;21.448;2023-02-22T06:16:02;100302.69;;;0.14;100.00
45357;BME280;31092;51.924;21.448;2023-02-22T06:18:27;100363.00;;;0.52;100.00
45357;BME280;31092;51.924;21.448;2023-02-22T06:20:55;100294.75;;;0.14;100.00
45357;BME280;31092;51.924;21.448;2023-02-22T06:23:21;100380.00;;;0.62;100.00
45357;BME280;31092;51.924;21.448;2023-02-22T06:25:47;100271.13;;;-0.04;100.00
45357;BME280;31092;51.924;21.448;2023-02-22T06:28:13;100364.78;;;0.51;100.00
45357;BME280;31092;51.924;21.448;2023-02-22T06:30:39;100310.91;;;0.23;100.00
45357;BME280;31092;51.924;21.448;2023-02-22T06:33:05;100353.84;;;0.43;100.00
45357;BME280;31092;51.924;21.448;2023-02-22T06:35:30;100376.91;;;0.55;100.00
45357;BME280;31092;51.924;21.448;2023-02-22T06:37:56;100280.03;;;-0.05;100.00
45357;BME280;31092;51.924;21.448;2023-02-22T06:40:21;100397.88;;;0.73;100.00
45357;BME280;31092;51.924;21.448;2023-02-22T06:42:47;100416.13;;;0.77;100.00
45357;BME280;31092;51.924;21.448;2023-02-22T06:45:15;100390.41;;;0.65;100.00
45357;BME280;31092;51.924;21.448;2023-02-22T06:47:40;100402.97;;;0.76;100.00
45357;BME280;31092;51.924;21.448;2023-02-22T06:50:09;100318.38;;;0.31;100.00
45357;BME280;31092;51.924;21.448;2023-02-22T06:52:57;100359.31;;;0.54;100.00
45357;BME280;31092;51.924;21.448;2023-02-22T06:55:24;100360.88;;;0.57;100.00
45357;BME280;31092;51.924;21.448;2023-02-22T06:57:51;100328.69;;;0.36;100.00
45357;BME280;31092;51.924;21.448;2023-02-22T07:00:18;100433.28;;;0.99;100.00
45357;BME280;31092;51.924;21.448;2023-02-22T07:02:45;100319.22;;;0.32;100.00
45357;BME280;31092;51.924;21.448;2023-02-22T07:05:14;100365.06;;;0.61;100.00
45357;BME280;31092;51.924;21.448;2023-02-22T07:07:41;100402.28;;;0.86;100.00
45357;BME280;31092;51.924;21.448;2023-02-22T07:10:13;100434.97;;;1.14;100.00
45357;BME280;31092;51.924;21.448;2023-02-22T07:12:40;100414.72;;;0.99;100.00
45357;BME280;31092;51.924;21.448;2023-02-22T07:15:06;100341.59;;;0.55;100.00
45357;BME280;31092;51.924;21.448;2023-02-22T07:17:31;100436.84;;;1.12;100.00
45357;BME280;31092;51.924;21.448;2023-02-22T07:19:57;100431.53;;;1.12;100.00
45357;BME280;31092;51.924;21.448;2023-02-22T07:22:22;100360.75;;;0.73;100.00
45357;BME280;31092;51.924;21.448;2023-02-22T07:24:48;100367.16;;;0.83;100.00
45357;BME280;31092;51.924;21.448;2023-02-22T07:27:13;100428.63;;;1.29;100.00
45357;BME280;31092;51.924;21.448;2023-02-22T07:29:41;100430.31;;;1.30;100.00
45357;BME280;31092;51.924;21.448;2023-02-22T07:32:07;100375.94;;;1.10;100.00
45357;BME280;31092;51.924;21.448;2023-02-22T07:34:32;100387.09;;;1.15;100.00
45357;BME280;31092;51.924;21.448;2023-02-22T07:36:58;100433.66;;;1.47;100.00
45357;BME280;31092;51.924;21.448;2023-02-22T07:39:23;100433.88;;;1.43;100.00
45357;BME280;31092;51.924;21.448;2023-02-22T07:41:49;100331.19;;;0.79;100.00
45357;BME280;31092;51.924;21.448;2023-02-22T07:44:14;100406.19;;;1.20;100.00
45357;BME280;31092;51.924;21.448;2023-02-22T07:46:40;100449.03;;;1.41;100.00
45357;BME280;31092;51.924;21.448;2023-02-22T07:49:05;100435.47;;;1.46;100.00
45357;BME280;31092;51.924;21.448;2023-02-22T07:51:31;100445.47;;;1.55;100.00
45357;BME280;31092;51.924;21.448;2023-02-22T07:53:56;100400.72;;;1.36;100.00
45357;BME280;31092;51.924;21.448;2023-02-22T07:56:22;100426.69;;;1.58;100.00
45357;BME280;31092;51.924;21.448;2023-02-22T07:58:47;100388.53;;;1.47;100.00
45357;BME280;31092;51.924;21.448;2023-02-22T08:01:13;100364.53;;;1.35;100.00
45357;BME280;31092;51.924;21.448;2023-02-22T08:03:38;100411.91;;;1.54;100.00
45357;BME280;31092;51.924;21.448;2023-02-22T08:06:06;100471.22;;;1.80;100.00
45357;BME280;31092;51.924;21.448;2023-02-22T08:08:32;100451.44;;;1.72;100.00
45357;BME280;31092;51.924;21.448;2023-02-22T08:10:58;100446.22;;;1.70;100.00
45357;BME280;31092;51.924;21.448;2023-02-22T08:13:24;100468.22;;;1.85;100.00
45357;BME280;31092;51.924;21.448;2023-02-22T08:15:51;100466.53;;;1.84;100.00
45357;BME280;31092;51.924;21.448;2023-02-22T08:18:18;100476.56;;;1.93;100.00
45357;BME280;31092;51.924;21.448;2023-02-22T08:20:46;100374.72;;;1.41;100.00
45357;BME280;31092;51.924;21.448;2023-02-22T08:23:29;100437.75;;;1.90;100.00
45357;BME280;31092;51.924;21.448;2023-02-22T08:26:03;100462.53;;;2.04;100.00
45357;BME280;31092;51.924;21.448;2023-02-22T08:28:29;100420.97;;;1.90;100.00
45357;BME280;31092;51.924;21.448;2023-02-22T08:30:54;100440.31;;;2.05;100.00
45357;BME280;31092;51.924;21.448;2023-02-22T08:33:20;100453.50;;;1.94;100.00
45357;BME280;31092;51.924;21.448;2023-02-22T08:35:47;100474.00;;;2.04;100.00
45357;BME280;31092;51.924;21.448;2023-02-22T08:38:23;100387.06;;;1.55;100.00
45357;BME280;31092;51.924;21.448;2023-02-22T08:40:49;100432.66;;;1.87;100.00
45357;BME280;31092;51.924;21.448;2023-02-22T08:43:15;100381.03;;;1.53;100.00
45357;BME280;31092;51.924;21.448;2023-02-22T08:45:41;100381.50;;;1.46;100.00
45357;BME280;31092;51.924;21.448;2023-02-22T08:48:08;100411.50;;;1.60;100.00
45357;BME280;31092;51.924;21.448;2023-02-22T08:50:34;100406.91;;;1.62;100.00
45357;BME280;31092;51.924;21.448;2023-02-22T08:53:01;100378.88;;;1.46;100.00
45357;BME280;31092;51.924;21.448;2023-02-22T08:55:30;100430.66;;;1.78;100.00
45357;BME280;31092;51.924;21.448;2023-02-22T08:57:57;100484.22;;;2.10;100.00
45357;BME280;31092;51.924;21.448;2023-02-22T09:00:22;100489.22;;;2.15;100.00
45357;BME280;31092;51.924;21.448;2023-02-22T09:02:50;100448.91;;;1.96;100.00
45357;BME280;31092;51.924;21.448;2023-02-22T09:05:15;100402.66;;;1.60;100.00
45357;BME280;31092;51.924;21.448;2023-02-22T09:07:42;100490.25;;;2.12;100.00
45357;BME280;31092;51.924;21.448;2023-02-22T09:10:22;100429.47;;;1.82;100.00
45357;BME280;31092;51.924;21.448;2023-02-22T09:12:52;100404.91;;;1.66;100.00
45357;BME280;31092;51.924;21.448;2023-02-22T09:15:20;100516.44;;;2.31;100.00
45357;BME280;31092;51.924;21.448;2023-02-22T09:17:46;100490.47;;;2.22;100.00
45357;BME280;31092;51.924;21.448;2023-02-22T09:20:12;100461.69;;;2.03;100.00
45357;BME280;31092;51.924;21.448;2023-02-22T09:22:39;100486.31;;;2.31;100.00
45357;BME280;31092;51.924;21.448;2023-02-22T09:25:05;100508.66;;;2.54;100.00
45357;BME280;31092;51.924;21.448;2023-02-22T09:27:31;100493.53;;;2.42;100.00
45357;BME280;31092;51.924;21.448;2023-02-22T09:29:56;100393.00;;;1.84;100.00
45357;BME280;31092;51.924;21.448;2023-02-22T09:32:23;100392.81;;;1.87;100.00
45357;BME280;31092;51.924;21.448;2023-02-22T09:34:52;100516.63;;;2.54;100.00
45357;BME280;31092;51.924;21.448;2023-02-22T09:37:17;100398.97;;;2.01;100.00
45357;BME280;31092;51.924;21.448;2023-02-22T09:39:43;100429.34;;;2.22;100.00
45357;BME280;31092;51.924;21.448;2023-02-22T09:42:21;100485.66;;;2.66;100.00
45357;BME280;31092;51.924;21.448;2023-02-22T09:47:39;100419.25;;;2.27;100.00
45357;BME280;31092;51.924;21.448;2023-02-22T09:50:12;100516.16;;;2.85;100.00
45357;BME280;31092;51.924;21.448;2023-02-22T09:53:04;100497.19;;;2.90;100.00
45357;BME280;31092;51.924;21.448;2023-02-22T09:55:44;100506.88;;;2.91;100.00
45357;BME280;31092;51.924;21.448;2023-02-22T09:58:21;100515.41;;;2.83;100.00
45357;BME280;31092;51.924;21.448;2023-02-22T10:00:54;100505.09;;;2.79;100.00
45357;BME280;31092;51.924;21.448;2023-02-22T10:03:58;100428.06;;;2.40;100.00
45357;BME280;31092;51.924;21.448;2023-02-22T10:06:23;100408.94;;;2.35;100.00
45357;BME280;31092;51.924;21.448;2023-02-22T10:08:52;100410.41;;;2.27;100.00
45357;BME280;31092;51.924;21.448;2023-02-22T10:24:58;100515.53;;;2.69;100.00
45357;BME280;31092;51.924;21.448;2023-02-22T10:27:35;100431.03;;;2.23;100.00
45357;BME280;31092;51.924;21.448;2023-02-22T10:30:24;100514.78;;;2.80;100.00
45357;BME280;31092;51.924;21.448;2023-02-22T10:32:58;100407.66;;;2.15;100.00
45357;BME280;31092;51.924;21.448;2023-02-22T10:35:43;100414.59;;;2.18;100.00
45357;BME280;31092;51.924;21.448;2023-02-22T10:38:23;100402.56;;;2.12;100.00
45357;BME280;31092;51.924;21.448;2023-02-22T10:40:55;100410.44;;;2.14;100.00
45357;BME280;31092;51.924;21.448;2023-02-22T10:43:23;100495.34;;;2.54;100.00
45357;BME280;31092;51.924;21.448;2023-02-22T10:45:51;100491.84;;;2.53;100.00
45357;BME280;31092;51.924;21.448;2023-02-22T10:48:20;100426.81;;;2.08;100.00
45357;BME280;31092;51.924;21.448;2023-02-22T10:50:48;100422.25;;;2.10;100.00
45357;BME280;31092;51.924;21.448;2023-02-22T10:53:15;100497.38;;;2.50;100.00
45357;BME280;31092;51.924;21.448;2023-02-22T10:58:57;100519.59;;;2.75;100.00
45357;BME280;31092;51.924;21.448;2023-02-22T11:04:16;100516.38;;;2.82;100.00
45357;BME280;31092;51.924;21.448;2023-02-22T11:06:49;100416.28;;;2.32;100.00
45357;BME280;31092;51.924;21.448;2023-02-22T11:09:30;100405.00;;;2.28;100.00
45357;BME280;31092;51.924;21.448;2023-02-22T11:12:10;100477.88;;;2.75;100.00
45357;BME280;31092;51.924;21.448;2023-02-22T11:14:40;100438.88;;;2.50;100.00
45357;BME280;31092;51.924;21.448;2023-02-22T11:17:07;100418.06;;;2.44;100.00
45357;BME280;31092;51.924;21.448;2023-02-22T11:19:34;100417.19;;;2.56;100.00
45357;BME280;31092;51.924;21.448;2023-02-22T11:22:12;100500.53;;;3.18;100.00
45357;BME280;31092;51.924;21.448;2023-02-22T11:25:00;100478.16;;;2.96;100.00
45357;BME280;31092;51.924;21.448;2023-02-22T11:27:32;100512.25;;;3.15;100.00
45357;BME280;31092;51.924;21.448;2023-02-22T11:30:10;100494.81;;;3.11;100.00
45357;BME280;31092;51.924;21.448;2023-02-22T11:32:48;100419.16;;;2.66;100.00
45357;BME280;31092;51.924;21.448;2023-02-22T11:35:48;100423.13;;;2.60;100.00
45357;BME280;31092;51.924;21.448;2023-02-22T11:38:28;100505.47;;;2.98;100.00
45357;BME280;31092;51.924;21.448;2023-02-22T11:41:09;100490.13;;;2.78;100.00
45357;BME280;31092;51.924;21.448;2023-02-22T11:43:35;100502.03;;;2.72;100.00
45357;BME280;31092;51.924;21.448;2023-02-22T11:48:35;100508.75;;;2.65;100.00
45357;BME280;31092;51.924;21.448;2023-02-22T11:56:25;100508.88;;;2.63;100.00
45357;BME280;31092;51.924;21.448;2023-02-22T12:02:12;100509.06;;;2.48;100.00
45357;BME280;31092;51.924;21.448;2023-02-22T12:10:37;100529.81;;;2.30;100.00
45357;BME280;31092;51.924;21.448;2023-02-22T12:21:05;100441.13;;;1.54;100.00
45357;BME280;31092;51.924;21.448;2023-02-22T12:26:08;100510.84;;;1.83;100.00
45357;BME280;31092;51.924;21.448;2023-02-22T12:28:50;100535.91;;;1.92;100.00
45357;BME280;31092;51.924;21.448;2023-02-22T12:31:19;100545.19;;;1.99;100.00
45357;BME280;31092;51.924;21.448;2023-02-22T12:33:53;100526.91;;;1.82;100.00
45357;BME280;31092;51.924;21.448;2023-02-22T12:36:24;100450.66;;;1.44;100.00
45357;BME280;31092;51.924;21.448;2023-02-22T12:39:02;100543.28;;;2.01;100.00
45357;BME280;31092;51.924;21.448;2023-02-22T12:41:39;100445.53;;;1.41;100.00
45357;BME280;31092;51.924;21.448;2023-02-22T12:44:14;100559.66;;;2.08;100.00
45357;BME280;31092;51.924;21.448;2023-02-22T12:46:48;100443.84;;;1.40;100.00
45357;BME280;31092;51.924;21.448;2023-02-22T12:52:08;100560.47;;;1.96;100.00
45357;BME280;31092;51.924;21.448;2023-02-22T12:54:58;100548.88;;;1.84;100.00
45357;BME280;31092;51.924;21.448;2023-02-22T13:00:16;100567.72;;;1.66;100.00
45357;BME280;31092;51.924;21.448;2023-02-22T13:03:12;100560.66;;;1.53;100.00
45357;BME280;31092;51.924;21.448;2023-02-22T13:05:48;100472.78;;;1.03;100.00
45357;BME280;31092;51.924;21.448;2023-02-22T13:08:43;100469.88;;;0.93;100.00
45357;BME280;31092;51.924;21.448;2023-02-22T13:17:03;100590.00;;;1.37;100.00
45357;BME280;31092;51.924;21.448;2023-02-22T13:22:46;100607.66;;;1.24;100.00
45357;BME280;31092;51.924;21.448;2023-02-22T13:30:52;100593.25;;;1.13;100.00
45357;BME280;31092;51.924;21.448;2023-02-22T13:38:53;100615.63;;;1.09;100.00
45357;BME280;31092;51.924;21.448;2023-02-22T13:41:44;100617.63;;;1.06;100.00
45357;BME280;31092;51.924;21.448;2023-02-22T13:46:53;100636.38;;;1.03;100.00
45357;BME280;31092;51.924;21.448;2023-02-22T13:52:07;100621.25;;;1.05;100.00
45357;BME280;31092;51.924;21.448;2023-02-22T13:54:46;100509.22;;;0.44;100.00
45357;BME280;31092;51.924;21.448;2023-02-22T13:57:22;100620.19;;;1.07;100.00
45357;BME280;31092;51.924;21.448;2023-02-22T14:03:04;100598.50;;;1.01;100.00
45357;BME280;31092;51.924;21.448;2023-02-22T14:10:57;100585.50;;;0.96;100.00
45357;BME280;31092;51.924;21.448;2023-02-22T14:13:31;100622.25;;;1.16;100.00
45357;BME280;31092;51.924;21.448;2023-02-22T14:21:09;100636.28;;;1.18;100.00
45357;BME280;31092;51.924;21.448;2023-02-22T14:26:34;100618.94;;;1.27;100.00
45357;BME280;31092;51.924;21.448;2023-02-22T14:32:00;100626.16;;;1.25;100.00
45357;BME280;31092;51.924;21.448;2023-02-22T14:34:54;100632.38;;;1.24;100.00
45357;BME280;31092;51.924;21.448;2023-02-22T14:37:27;100614.72;;;1.10;100.00
45357;BME280;31092;51.924;21.448;2023-02-22T14:39:59;100511.69;;;0.47;100.00
45357;BME280;31092;51.924;21.448;2023-02-22T14:42:40;100634.59;;;1.17;100.00
45357;BME280;31092;51.924;21.448;2023-02-22T14:50:18;100657.03;;;1.12;100.00
45357;BME280;31092;51.924;21.448;2023-02-22T14:52:58;100561.22;;;0.61;100.00
45357;BME280;31092;51.924;21.448;2023-02-22T14:55:26;100542.72;;;0.45;100.00
45357;BME280;31092;51.924;21.448;2023-02-22T14:58:14;100600.31;;;0.71;100.00
45357;BME280;31092;51.924;21.448;2023-02-22T15:00:45;100551.81;;;0.41;100.00
45357;BME280;31092;51.924;21.448;2023-02-22T15:03:26;100549.94;;;0.29;100.00
45357;BME280;31092;51.924;21.448;2023-02-22T15:06:05;100539.88;;;0.34;100.00
45357;BME280;31092;51.924;21.448;2023-02-22T15:08:32;100602.19;;;0.69;100.00